Terminal Aerodrome Forecast
Issued by NWS

Home | Current Version | Previous Version | Text Only | Print | Product List | Glossary On
Versions: 1 2 3 4 5 6 7 8 9 10 11 12 13 14 15 16 17
000
FTUS43 KICT 180034 AAA
TAFCNU
TAF AMD
KCNU 180034Z 1801/1824 08006KT 3SM -FZRAPLSN BKN012 OVC035
     FM180700 07008KT 2SM -FZDZSN SCT004 OVC009
     FM181700 03008KT 4SM BR OVC009=

USA.gov is the U.S. government's official web portal to all federal, state and local government web resources and services.